Logo AVAMET
Benvolgut visitant, si us plau, ingressa Recuperar contrasenya
AVAMET paisatges

Inforatge Catarroja Ajuntament

Dades diàries. Acumulats / Últims 30 dies disponibles

Data Temperatura (°C) Humitat rel. (%) Pressió rel. (hPa) Vent (km/h) Precipitació
Mínima Mitjana Màxima Amplitud
tèrmica
Mínima Mitjana Màxima Mínima Mitjana Màxima Predom. Mitjana Ràfega
màxima
Total
(mm)
Índex-n
Mínima Mitjana Màxima Mínima Mitjana Màxima n
0 a 1
P0 max
mm 5'
Dades mensuals acumulades fins l'últim dia disponible
02/2020 6,4 10,8 14,4 14,6 14,0 19,9 26,3 19,9 32 75 96 1.021 1.026 1.032   4,6 40,2 0,2
Dades anuals acumulades fins l'últim dia disponible
2020 2,6 8,5 14,7 12,3 8,4 17,1 26,3 23,7 30 76 97 1.014 1.026 1.035   5,5 72,4 152,0
Últims 30 dies disponibles
18-02-2020 13,3     13,5     14,0 0,7 75 88 91 1.030 1.031 1.032 NW 1,8 11,3 0,0
17-02-2020 8,6     13,7     23,6 15,0 46 83 96 1.023 1.026 1.030 NE 5,1 38,6 0,2
16-02-2020 8,9     12,4     16,1 7,2 78 89 95 1.025 1.027 1.028 WNW 2,4 17,7 0,0
15-02-2020 8,3     12,7     17,1 8,8 63 81 90 1.025 1.027 1.028 ESE 3,7 19,3 0,0
14-02-2020 10,9     14,9     21,4 10,5 44 69 83 1.024 1.025 1.027 W 3,7 17,7 0,0
13-02-2020 10,4     14,2     19,5 9,1 65 82 91 1.021 1.023 1.024 NW 2,3 14,5 0,0
12-02-2020 10,9     14,3     18,6 7,7 60 80 89 1.024 1.025 1.026 ENE 3,4 19,3 0,0
11-02-2020 13,7     17,4     23,8 10,1 40 66 86 1.022 1.024 1.027 WNW 5,8 24,1 0,0
10-02-2020 12,3     17,6     23,3 11,0 48 61 73 1.025 1.028 1.031 W 10,5 32,2 0,0
09-02-2020 8,2     12,3     16,7 8,5 64 83 92 1.028 1.030 1.032 NW 2,9 17,7 0,0
08-02-2020 6,4     11,2     16,4 10,0 63 82 91 1.024 1.025 1.028 WNW 2,7 19,3 0,0
07-02-2020 8,4     11,4     15,0 6,6 66 81 90 1.024 1.025 1.027 NW 2,7 14,5 0,0
06-02-2020 7,3     11,5     15,3 8,0 62 80 91 1.026 1.028 1.030 NW 4,3 20,9 0,0
05-02-2020 10,7     13,2     16,9 6,2 55 74 84 1.027 1.029 1.032 ESE 4,5 22,5 0,0
04-02-2020 13,6     18,5     26,3 12,7 32 54 75 1.022 1.025 1.027 W 5,0 27,4 0,0
03-02-2020 13,6     17,6     25,3 11,7 42 67 76 1.026 1.028 1.030 W 4,3 19,3 0,0
02-02-2020 14,4     18,1     23,9 9,5 49 67 76 1.027 1.028 1.030 W 7,1 30,6 0,0
01-02-2020 13,7     18,6     24,5 10,8 49 66 78 1.021 1.023 1.027 W 10,5 40,2 0,0
31-01-2020 14,4     16,8     20,9 6,5 55 64 73 1.021 1.022 1.024 O 10,9 37,0 0,0
30-01-2020 13,8     16,4     20,0 6,2 48 62 74 1.020 1.022 1.023 W 12,9 41,8 0,0
29-01-2020 14,7     16,8     19,8 5,1 58 67 75 1.021 1.022 1.023 W 11,1 40,2 0,0
28-01-2020 13,6     15,6     17,5 3,9 62 67 72 1.021 1.022 1.023 W 12,9 45,1 0,0
27-01-2020 8,5     12,2     16,5 8,0 51 66 82 1.021 1.023 1.026 W 12,4 46,7 0,0
26-01-2020 9,5     12,6     17,4 7,9 51 80 95 1.019 1.021 1.026 NW 4,0 25,7 0,0
25-01-2020 10,4     12,0     13,5 3,1 80 90 94 1.018 1.020 1.022 NW 2,3 20,9 0,4
24-01-2020 8,6     11,6     14,9 6,3 72 86 93 1.021 1.023 1.024 NW 1,9 9,7 0,0
23-01-2020 5,6     9,7     13,2 7,6 73 86 91 1.019 1.021 1.024 E 1,8 11,3 0,0
22-01-2020 7,7     10,4     12,9 5,2 78 88 96 1.018 1.019 1.021 NE 5,6 35,4 15,4
21-01-2020 7,5     9,8     12,1 4,6 88 94 97 1.014 1.017 1.023 NNW 9,2 53,1 68,8
20-01-2020 4,9     6,7     8,4 3,5 74 86 95 1.019 1.021 1.022 NNE 19,6 72,4 40,6
Últims 13 mesos disponibles
12/2019 5,4 10,8 17,9 13,8 13,1 17,6 24,6 19,2 53 70 92 1.002 1.019 1.033 WSW 8,6 93,3 76,6
11/2019 5,7 12,1 20,9 15,6 15,7 19,7 28,8 23,1 41 57 78 999 1.011 1.019 WSW 11,7 75,6 3,6
10/2019 11,8 16,4 20,5 20,3 16,1 25,1 34,9 23,1 42 67 83 1.008 1.017 1.022 WNW 5,5 51,5 25,0
09/2019 15,4 20,4 24,1 23,9 21,8 27,5 33,9 18,5 40 72 84 1.010 1.018 1.025 SSE 6,0 56,3 94,6
08/2019 18,4 22,7 27,2 26,5 27,1 30,4 41,4 23,0 43 71 79 1.011 1.016 1.021 SSE 5,6 55,6 10,6
07/2019 21,4 23,0 25,3 26,8 27,7 30,6 37,6 16,2 48 68 77 1.006 1.014 1.021 SSE 6,1 56,3 6,8
06/2019 12,9 18,3 22,8 22,7 21,4 26,7 33,7 20,8 38 66 79 1.009 1.016 1.022 SE 6,2 59,6 0,0
05/2019 9,1 14,7 20,9 18,8 18,8 23,0 32,3 23,2 49 67 82 1.005 1.016 1.025 SSE 6,7 56,3 18,0
04/2019 8,8 11,6 14,3 15,5 15,4 19,9 30,3 21,5 41 66 95 1.000 1.013 1.025 SSE 8,8 63,0 85,2
03/2019 6,1 8,3 10,6 13,5 13,3 18,4 22,6 16,5 52 63 84 1.016 1.024 1.028 SSO 5,3 38,9 13,2
02/2019 3,9 7,3 10,9 12,0 12,7 17,7 25,3 21,4 35 65 78 995 1.025 1.034 SSO 6,4 72,4 0,0
01/2019 1,2 6,3 12,6 10,9 11,7 16,6 20,7 19,5 43 60 79 1.002 1.019 1.031 OSO 6,9 62,9 0,0
12/2018 4,8 9,3 14,0 13,0 13,3 18,1 23,1 18,3 56 69 87 1.009 1.025 1.031 O 5,9 50,0 11,4
Tots els anys disponibles
2019 1,2 14,7 27,2 18,7 11,7 23,1 41,4 40,2 35 66 95 995 1.017 1.034 WSW 7,1 93,3 333,6
2018 2,4 14,7 25,6 18,5 8,7 22,7 36,2 33,8 40 68 93 993 1.016 1.033 S 6,8 88,8 812,8
2017 0,4 14,4 26,0 18,5 9,2 22,8 36,2 35,8 31 68 90 997 1.019 1.036 SSO 5,3 88,8 340,4
Temperatura (°C)
Humitat relativa (%)
Velocitat del vent i ràfega màxima (km/h)
Direcció del vent (°)
Pressió (hPa)
Precipitació (mm)
Nota sobre les dades: s'avisa a l'usuari de la provisionalitat i no oficialitat d'aquestes dades
Logo AVAMET blanc
Web allotjada a Sollutia
Llicència de Creative CommonsLa web d'AVAMET i els seus continguts estan subjectes a una llicència de
Reconeixement - No Comercial - Compartir igual
Últimes estacions:  Sorita (AVAMET), Gorga (Soci), Massalavés - Ajuntament (Soci/Inforatge), Albuixech - Polígon (Inforatge), La Torre d'en Besora (Ajuntament soci), Xixona - Sogorb Barranc Blanc (Soci), Pedreguer - Patronat (Soci) - - -